Time;durP1;ratioP1;P1;durP2;ratioP2;P2;SDS_P1;SDS_P2;PMS_P1;PMS_P2;Temp;Humidity;BMP_temperature;BMP_pressure;BME280_temperature;BME280_humidity;BME280_pressure;Samples;Min_cycle;Max_cycle;Signal;HPM_P1;HPM_P2
2021/05/22 00:01:30;;;;;;;0.95;0.30;;;;;17.70;99660.00;;;;5079965;28;20695;-79
2021/05/22 00:03:57;;;;;;;2.30;0.40;;;;;17.70;99655.00;;;;5073074;28;20202;-78
2021/05/22 00:06:24;;;;;;;1.45;0.47;;;;;17.70;99652.00;;;;5070483;28;20207;-78
2021/05/22 00:08:51;;;;;;;1.40;0.52;;;;;17.70;99655.00;;;;5070338;28;20230;-79
2021/05/22 00:11:18;;;;;;;0.77;0.25;;;;;17.70;99654.00;;;;5076384;28;20187;-80
2021/05/22 00:13:45;;;;;;;0.77;0.30;;;;;17.70;99644.00;;;;5070563;28;20235;-79
2021/05/22 00:16:12;;;;;;;1.65;0.40;;;;;17.70;99645.00;;;;5070422;28;20225;-78
2021/05/22 00:18:39;;;;;;;1.92;0.40;;;;;17.70;99630.00;;;;5070751;28;20195;-78
2021/05/22 00:21:06;;;;;;;0.98;0.40;;;;;17.70;99630.00;;;;5070381;28;20199;-78
2021/05/22 00:23:32;;;;;;;1.17;0.32;;;;;17.70;99630.00;;;;5085941;28;20595;-79
2021/05/22 00:26:00;;;;;;;2.58;0.47;;;;;17.70;99650.00;;;;5079761;28;20723;-79
2021/05/22 00:28:27;;;;;;;2.15;0.32;;;;;17.70;99634.00;;;;5073048;28;20744;-78
2021/05/22 00:30:53;;;;;;;2.17;0.35;;;;;17.70;99630.00;;;;5082485;28;20191;-78
2021/05/22 00:33:20;;;;;;;2.40;0.70;;;;;17.60;99619.00;;;;5070014;28;20203;-79
2021/05/22 00:35:47;;;;;;;1.75;0.50;;;;;17.60;99625.00;;;;5069733;28;20195;-78
2021/05/22 00:38:14;;;;;;;1.15;0.50;;;;;17.60;99613.00;;;;5069764;28;20224;-78
2021/05/22 00:40:40;;;;;;;1.95;0.40;;;;;17.60;99615.00;;;;5085119;28;20836;-78
2021/05/22 00:43:08;;;;;;;1.60;0.45;;;;;17.50;99614.00;;;;5089346;28;20194;-79
2021/05/22 00:45:35;;;;;;;2.20;0.38;;;;;17.50;99612.00;;;;5083020;28;20564;-79
2021/05/22 00:48:04;;;;;;;2.42;0.52;;;;;17.50;99601.00;;;;5069635;28;20314;-78
2021/05/22 00:50:32;;;;;;;1.70;0.32;;;;;17.50;99600.00;;;;5083285;28;20260;-78
2021/05/22 00:53:00;;;;;;;1.52;0.70;;;;;17.50;99603.00;;;;5068832;28;20677;-78
2021/05/22 00:55:27;;;;;;;0.95;0.30;;;;;17.50;99605.00;;;;5068923;28;20191;-80
2021/05/22 00:57:54;;;;;;;1.33;0.30;;;;;17.40;99599.00;;;;5069902;28;20199;-78
2021/05/22 01:00:36;;;;;;;2.38;0.40;;;;;17.40;99590.00;;;;5075792;28;20198;-79
2021/05/22 01:03:03;;;;;;;2.30;0.30;;;;;17.40;99595.00;;;;5069100;28;20202;-79
2021/05/22 01:05:29;;;;;;;2.05;0.63;;;;;17.40;99589.00;;;;5069494;28;20722;-79
2021/05/22 01:07:57;;;;;;;2.22;0.52;;;;;17.40;99584.00;;;;5069034;28;20226;-78
2021/05/22 01:10:24;;;;;;;2.40;0.70;;;;;17.30;99589.00;;;;5069007;28;20203;-79
2021/05/22 01:12:55;;;;;;;1.42;0.38;;;;;17.30;99576.00;;;;5069756;28;20195;-78
2021/05/22 01:15:25;;;;;;;1.85;0.63;;;;;17.30;99580.00;;;;5068648;28;20657;-78
2021/05/22 01:17:52;;;;;;;0.95;0.30;;;;;17.30;99593.00;;;;5069161;28;20211;-78
2021/05/22 01:20:33;;;;;;;5.20;0.70;;;;;17.20;99580.00;;;;5069088;28;20199;-78
2021/05/22 01:23:04;;;;;;;2.40;0.60;;;;;17.20;99570.00;;;;5068849;28;20672;-78
2021/05/22 01:25:33;;;;;;;1.95;0.60;;;;;17.20;99572.00;;;;5068729;28;20211;-78
2021/05/22 01:28:03;;;;;;;2.38;0.63;;;;;17.20;99576.00;;;;5069253;28;20242;-78
2021/05/22 01:30:30;;;;;;;2.63;0.70;;;;;17.20;99591.00;;;;5076047;28;20194;-78
2021/05/22 01:32:57;;;;;;;4.43;0.60;;;;;17.20;99593.00;;;;5087027;28;20198;-78
2021/05/22 01:35:24;;;;;;;2.47;0.70;;;;;17.20;99594.00;;;;5068859;28;20206;-78
2021/05/22 01:37:51;;;;;;;2.97;0.70;;;;;17.20;99589.00;;;;5069235;28;20226;-78
2021/05/22 01:40:18;;;;;;;5.18;0.40;;;;;17.20;99592.00;;;;5068822;28;20536;-77
2021/05/22 01:42:46;;;;;;;3.60;0.40;;;;;17.10;99582.00;;;;5068537;28;20201;-78
2021/05/22 01:45:16;;;;;;;2.03;0.30;;;;;17.20;99595.00;;;;5081661;28;20198;-78
2021/05/22 01:47:44;;;;;;;3.45;0.57;;;;;17.20;99592.00;;;;5068467;28;20618;-79
2021/05/22 01:50:12;;;;;;;4.60;0.60;;;;;17.20;99600.00;;;;5069838;28;20203;-78
2021/05/22 01:52:42;;;;;;;2.45;0.70;;;;;17.10;99590.00;;;;5068000;28;20199;-78
2021/05/22 01:55:11;;;;;;;1.13;0.20;;;;;17.10;99584.00;;;;5068085;28;20187;-78
2021/05/22 01:57:39;;;;;;;1.80;0.90;;;;;17.10;99586.00;;;;5068946;28;20206;-79
2021/05/22 02:00:08;;;;;;;1.45;0.20;;;;;17.10;99589.00;;;;5069587;28;20199;-78
2021/05/22 02:02:35;;;;;;;0.88;0.20;;;;;17.10;99585.00;;;;5072160;28;20571;-78
2021/05/22 02:05:05;;;;;;;1.38;0.40;;;;;17.10;99589.00;;;;5083020;28;20198;-78
2021/05/22 02:07:36;;;;;;;1.95;0.60;;;;;17.00;99575.00;;;;5087583;28;20827;-79
2021/05/22 02:10:06;;;;;;;1.67;0.45;;;;;17.00;99579.00;;;;5069259;28;20206;-77
2021/05/22 02:12:34;;;;;;;1.55;0.47;;;;;17.00;99575.00;;;;5068820;28;20588;-78
2021/05/22 02:15:03;;;;;;;2.53;0.30;;;;;17.00;99587.00;;;;5067978;28;20203;-78
2021/05/22 02:17:31;;;;;;;1.10;0.63;;;;;17.00;99576.00;;;;5068902;28;20206;-78
2021/05/22 02:19:59;;;;;;;2.38;0.43;;;;;17.00;99573.00;;;;5068319;28;20592;-78
2021/05/22 02:22:26;;;;;;;0.75;0.25;;;;;16.90;99582.00;;;;5068793;28;20210;-78
2021/05/22 02:24:56;;;;;;;0.93;0.55;;;;;16.90;99565.00;;;;5068338;28;20203;-78
2021/05/22 02:27:23;;;;;;;0.75;0.22;;;;;16.90;99577.00;;;;5068074;28;20268;-77
2021/05/22 02:29:51;;;;;;;5.65;0.52;;;;;16.90;99568.00;;;;5068525;28;20229;-78
2021/05/22 02:32:20;;;;;;;3.08;0.40;;;;;16.90;99562.00;;;;5067831;28;20669;-78
2021/05/22 02:34:52;;;;;;;1.75;0.50;;;;;16.80;99570.00;;;;5068014;28;20191;-78
2021/05/22 02:37:21;;;;;;;0.50;0.22;;;;;16.80;99560.00;;;;5067962;28;20245;-77
2021/05/22 02:39:50;;;;;;;1.40;0.40;;;;;16.80;99563.00;;;;5069171;28;20210;-78
2021/05/22 02:42:19;;;;;;;0.30;0.22;;;;;16.80;99547.00;;;;5067445;28;20203;-78
2021/05/22 02:44:48;;;;;;;1.20;0.30;;;;;16.80;99543.00;;;;5069738;28;20210;-78
2021/05/22 02:47:16;;;;;;;2.17;0.50;;;;;16.80;99551.00;;;;5079407;28;20197;-78
2021/05/22 02:49:44;;;;;;;0.82;0.30;;;;;16.80;99542.00;;;;5068264;28;20238;-78
2021/05/22 02:52:15;;;;;;;2.17;0.55;;;;;16.80;99556.00;;;;5067991;28;20229;-78
2021/05/22 02:54:43;;;;;;;1.95;0.63;;;;;16.80;99546.00;;;;5070132;28;20206;-78
2021/05/22 02:57:11;;;;;;;3.65;0.32;;;;;16.80;99555.00;;;;5071835;28;20203;-78
2021/05/22 02:59:40;;;;;;;0.95;0.50;;;;;16.80;99553.00;;;;5071546;28;20202;-77
2021/05/22 03:02:09;;;;;;;0.77;0.32;;;;;16.80;99553.00;;;;5073315;28;20211;-77
2021/05/22 03:04:36;;;;;;;1.08;0.50;;;;;16.80;99568.00;;;;5091543;28;20505;-78
2021/05/22 03:07:04;;;;;;;2.90;0.60;;;;;16.70;99541.00;;;;5078151;28;20206;-78
2021/05/22 03:09:31;;;;;;;1.55;0.35;;;;;16.70;99536.00;;;;5071329;28;20234;-78
2021/05/22 03:11:58;;;;;;;0.50;0.20;;;;;16.70;99547.00;;;;5071933;28;20243;-77
2021/05/22 03:14:25;;;;;;;1.75;0.60;;;;;16.70;99534.00;;;;5071388;28;20214;-78
2021/05/22 03:16:52;;;;;;;1.02;0.40;;;;;16.70;99534.00;;;;5071457;28;20228;-77
2021/05/22 03:19:18;;;;;;;0.93;0.50;;;;;16.70;99539.00;;;;5071514;28;20203;-78
2021/05/22 03:21:45;;;;;;;1.23;0.30;;;;;16.70;99536.00;;;;5071669;28;20206;-78
2021/05/22 03:24:13;;;;;;;2.40;0.38;;;;;16.70;99543.00;;;;5071339;28;20675;-78
2021/05/22 03:26:41;;;;;;;2.13;0.50;;;;;16.60;99540.00;;;;5080818;28;20684;-78
2021/05/22 03:29:08;;;;;;;2.63;0.55;;;;;16.60;99549.00;;;;5087262;28;20634;-77
2021/05/22 03:31:34;;;;;;;1.35;0.30;;;;;16.60;99533.00;;;;5082053;28;20692;-78
2021/05/22 03:34:01;;;;;;;1.45;0.43;;;;;16.60;99536.00;;;;5070994;28;20195;-78
2021/05/22 03:36:28;;;;;;;1.63;0.43;;;;;16.60;99542.00;;;;5070786;28;20199;-78
2021/05/22 03:38:55;;;;;;;3.25;0.30;;;;;16.60;99530.00;;;;5070569;28;20211;-77
2021/05/22 03:41:21;;;;;;;1.83;0.40;;;;;16.60;99535.00;;;;5071679;28;20203;-77
2021/05/22 03:43:49;;;;;;;0.90;0.50;;;;;16.60;99527.00;;;;5070503;28;20195;-78
2021/05/22 03:46:16;;;;;;;1.25;0.52;;;;;16.60;99534.00;;;;5075624;28;20203;-78
2021/05/22 03:48:42;;;;;;;2.53;0.73;;;;;16.50;99529.00;;;;5070139;28;20233;-77
2021/05/22 03:51:09;;;;;;;1.50;0.40;;;;;16.50;99525.00;;;;5070118;28;20198;-78
2021/05/22 03:53:36;;;;;;;2.50;0.80;;;;;16.50;99521.00;;;;5070742;28;20206;-78
2021/05/22 03:56:03;;;;;;;0.85;0.50;;;;;16.40;99531.00;;;;5069495;28;20748;-77
2021/05/22 03:58:30;;;;;;;1.88;0.45;;;;;16.40;99535.00;;;;5070049;28;20203;-77
2021/05/22 04:00:58;;;;;;;2.00;1.10;;;;;16.40;99526.00;;;;5079311;28;20202;-77
2021/05/22 04:03:24;;;;;;;4.93;0.95;;;;;16.40;99534.00;;;;5070242;28;20635;-78
2021/05/22 04:05:52;;;;;;;0.40;0.25;;;;;16.30;99526.00;;;;5069385;28;20684;-76
2021/05/22 04:08:18;;;;;;;0.88;0.30;;;;;16.30;99531.00;;;;5069366;28;20235;-77
2021/05/22 04:10:45;;;;;;;3.83;1.02;;;;;16.30;99539.00;;;;5070230;28;20187;-77
2021/05/22 04:13:13;;;;;;;0.82;0.40;;;;;16.30;99530.00;;;;5070036;28;20207;-77
2021/05/22 04:15:40;;;;;;;2.92;0.50;;;;;16.30;99531.00;;;;5069967;28;20198;-78
2021/05/22 04:18:09;;;;;;;1.27;0.50;;;;;16.20;99528.00;;;;5069302;28;20210;-76
2021/05/22 04:20:36;;;;;;;1.17;0.47;;;;;16.20;99529.00;;;;5076951;28;20203;-76
2021/05/22 04:23:03;;;;;;;0.82;0.50;;;;;16.20;99536.00;;;;5070049;28;20691;-77
2021/05/22 04:25:30;;;;;;;1.38;0.65;;;;;16.20;99538.00;;;;5070864;28;20187;-77
2021/05/22 04:27:57;;;;;;;1.80;0.47;;;;;16.20;99536.00;;;;5070097;28;20608;-76
2021/05/22 04:30:24;;;;;;;2.22;0.68;;;;;16.20;99542.00;;;;5070080;28;20576;-77
2021/05/22 04:32:51;;;;;;;0.50;0.47;;;;;16.20;99531.00;;;;5070023;28;20199;-77
2021/05/22 04:35:18;;;;;;;1.63;0.68;;;;;16.20;99544.00;;;;5069735;28;20560;-77
2021/05/22 04:37:45;;;;;;;1.20;0.60;;;;;16.20;99541.00;;;;5070859;28;20637;-76
2021/05/22 04:40:12;;;;;;;1.80;0.65;;;;;16.10;99549.00;;;;5070953;28;20309;-77
2021/05/22 04:42:39;;;;;;;1.48;0.50;;;;;16.10;99538.00;;;;5089950;28;20205;-76
2021/05/22 04:45:08;;;;;;;2.00;0.50;;;;;16.10;99542.00;;;;5070639;28;20229;-76
2021/05/22 04:47:35;;;;;;;3.05;0.70;;;;;16.10;99538.00;;;;5069767;28;20611;-77
2021/05/22 04:50:02;;;;;;;3.80;0.68;;;;;16.10;99553.00;;;;5069384;28;20234;-76
2021/05/22 04:52:30;;;;;;;1.45;0.70;;;;;16.10;99546.00;;;;5069627;28;20209;-77
2021/05/22 04:54:57;;;;;;;0.43;0.38;;;;;16.00;99542.00;;;;5069286;28;20207;-77
2021/05/22 04:57:23;;;;;;;1.05;0.65;;;;;16.00;99546.00;;;;5069922;28;20206;-76
2021/05/22 04:59:50;;;;;;;1.55;0.50;;;;;16.00;99543.00;;;;5069543;28;20195;-77
2021/05/22 05:02:17;;;;;;;1.30;0.43;;;;;16.00;99546.00;;;;5074797;28;20199;-76
2021/05/22 05:04:44;;;;;;;0.98;0.40;;;;;16.00;99560.00;;;;5077402;28;20203;-77
2021/05/22 05:07:11;;;;;;;1.85;0.65;;;;;16.00;99560.00;;;;5088149;28;20194;-76
2021/05/22 05:09:39;;;;;;;2.22;0.80;;;;;16.00;99555.00;;;;5075343;28;20238;-77
2021/05/22 05:12:08;;;;;;;3.22;0.70;;;;;16.00;99556.00;;;;5084420;28;20205;-76
2021/05/22 05:14:35;;;;;;;0.95;0.65;;;;;16.00;99553.00;;;;5089502;28;20620;-76
2021/05/22 05:17:02;;;;;;;1.25;0.82;;;;;16.00;99564.00;;;;5075237;28;20209;-76
2021/05/22 05:19:30;;;;;;;1.30;0.50;;;;;16.00;99563.00;;;;5074299;28;20206;-76
2021/05/22 05:21:58;;;;;;;1.77;0.50;;;;;16.00;99557.00;;;;5074826;28;20612;-77
2021/05/22 05:24:25;;;;;;;1.23;0.45;;;;;16.00;99554.00;;;;5080258;28;20493;-77
2021/05/22 05:26:52;;;;;;;1.25;0.60;;;;;16.00;99570.00;;;;5086084;28;20217;-76
2021/05/22 05:29:20;;;;;;;1.73;0.63;;;;;16.00;99586.00;;;;5084357;28;20229;-76
2021/05/22 05:31:46;;;;;;;4.15;0.80;;;;;16.00;99581.00;;;;5088982;28;20206;-76
2021/05/22 05:34:13;;;;;;;1.33;0.63;;;;;16.00;99583.00;;;;5084755;28;20557;-76
2021/05/22 05:36:40;;;;;;;3.78;0.82;;;;;16.00;99569.00;;;;5076326;28;20206;-76
2021/05/22 05:39:07;;;;;;;1.25;0.50;;;;;16.00;99585.00;;;;5088309;28;20202;-76
2021/05/22 05:41:33;;;;;;;0.70;0.47;;;;;16.00;99578.00;;;;5076357;28;20219;-76
2021/05/22 05:44:01;;;;;;;1.77;0.60;;;;;16.00;99586.00;;;;5068519;28;20191;-76
2021/05/22 05:46:28;;;;;;;0.85;0.57;;;;;16.00;99587.00;;;;5082080;28;20194;-76
2021/05/22 05:48:54;;;;;;;1.95;0.60;;;;;16.00;99597.00;;;;5072674;28;20230;-76
2021/05/22 05:51:21;;;;;;;2.03;0.70;;;;;16.00;99595.00;;;;5084279;28;20209;-74
2021/05/22 05:53:48;;;;;;;3.90;1.05;;;;;16.00;99591.00;;;;5081723;28;20194;-75
2021/05/22 05:56:15;;;;;;;1.25;0.32;;;;;16.00;99591.00;;;;5072292;28;20660;-76
2021/05/22 05:58:41;;;;;;;0.90;0.70;;;;;16.00;99602.00;;;;5065600;28;20622;-75
2021/05/22 06:01:13;;;;;;;1.08;0.68;;;;;16.00;99596.00;;;;5079750;28;20228;-78
2021/05/22 06:03:40;;;;;;;2.63;0.82;;;;;16.00;99597.00;;;;5079666;28;20350;-76
2021/05/22 06:06:07;;;;;;;0.70;0.60;;;;;16.00;99600.00;;;;5083357;28;20530;-77
2021/05/22 06:08:33;;;;;;;2.55;0.90;;;;;16.00;99604.00;;;;5080613;28;20227;-76
2021/05/22 06:11:01;;;;;;;0.50;0.50;;;;;16.00;99607.00;;;;5086826;28;20213;-76
2021/05/22 06:13:30;;;;;;;2.92;1.27;;;;;16.00;99609.00;;;;5084081;28;20582;-76
2021/05/22 06:16:04;;;;;;;1.85;0.95;;;;;16.10;99620.00;;;;5087894;28;20210;-76
2021/05/22 06:18:33;;;;;;;1.85;0.65;;;;;16.00;99611.00;;;;5087480;28;20236;-76
2021/05/22 06:21:00;;;;;;;2.13;1.05;;;;;16.00;99618.00;;;;5068508;28;20628;-76
2021/05/22 06:23:28;;;;;;;0.95;0.75;;;;;16.00;99610.00;;;;5070239;28;20195;-76
2021/05/22 06:25:54;;;;;;;2.25;0.77;;;;;16.10;99622.00;;;;5069522;28;20213;-77
2021/05/22 06:28:22;;;;;;;1.73;0.45;;;;;16.10;99618.00;;;;5067928;28;20572;-76
2021/05/22 06:30:49;;;;;;;1.20;0.65;;;;;16.10;99616.00;;;;5071226;28;20632;-76
2021/05/22 06:33:16;;;;;;;2.53;0.65;;;;;16.10;99625.00;;;;5072503;28;20207;-76
2021/05/22 06:35:43;;;;;;;1.13;0.70;;;;;16.10;99628.00;;;;5072991;28;20217;-76
2021/05/22 06:38:10;;;;;;;1.58;0.60;;;;;16.10;99631.00;;;;5091983;28;20194;-75
2021/05/22 06:40:37;;;;;;;1.10;1.00;;;;;16.10;99628.00;;;;5092493;28;20209;-76
2021/05/22 06:43:04;;;;;;;0.98;0.60;;;;;16.10;99637.00;;;;5088303;28;20198;-75
2021/05/22 06:45:39;;;;;;;1.52;0.95;;;;;16.20;99635.00;;;;5072713;28;20203;-78
2021/05/22 06:48:07;;;;;;;1.90;0.93;;;;;16.20;99636.00;;;;5084687;28;20193;-77
2021/05/22 06:50:34;;;;;;;0.63;0.63;;;;;16.20;99638.00;;;;5097376;28;20188;-78
2021/05/22 06:53:02;;;;;;;0.95;0.70;;;;;16.20;99643.00;;;;5090215;28;20199;-77
2021/05/22 06:55:28;;;;;;;1.15;0.60;;;;;16.20;99643.00;;;;5091936;28;20506;-77
2021/05/22 06:57:55;;;;;;;1.58;0.70;;;;;16.20;99654.00;;;;5091795;28;20201;-77
2021/05/22 07:00:23;;;;;;;1.60;0.90;;;;;16.30;99655.00;;;;5092153;28;20205;-77
2021/05/22 07:02:50;;;;;;;1.50;0.80;;;;;16.30;99652.00;;;;5092124;28;20203;-78
2021/05/22 07:05:17;;;;;;;0.80;0.70;;;;;16.30;99655.00;;;;5088657;28;20713;-78
2021/05/22 07:07:44;;;;;;;1.55;0.88;;;;;16.30;99659.00;;;;5078791;28;20206;-77
2021/05/22 07:10:12;;;;;;;1.50;0.80;;;;;16.30;99658.00;;;;5078680;28;20233;-77
2021/05/22 07:12:39;;;;;;;0.93;0.88;;;;;16.30;99664.00;;;;5082529;28;20202;-78
2021/05/22 07:15:08;;;;;;;1.25;0.70;;;;;16.30;99666.00;;;;5082323;28;20223;-77
2021/05/22 07:17:35;;;;;;;1.98;0.90;;;;;16.30;99672.00;;;;5087316;28;20195;-79
2021/05/22 07:20:03;;;;;;;1.63;0.80;;;;;16.30;99669.00;;;;5086939;28;20971;-78
2021/05/22 07:22:30;;;;;;;1.60;1.00;;;;;16.40;99669.00;;;;5088114;28;20187;-79
2021/05/22 07:24:56;;;;;;;1.13;0.88;;;;;16.40;99676.00;;;;5094133;28;20619;-79
2021/05/22 07:27:24;;;;;;;2.92;0.98;;;;;16.40;99681.00;;;;5090850;28;20259;-80
2021/05/22 07:29:51;;;;;;;4.18;1.38;;;;;16.50;99679.00;;;;5082046;28;20442;-78
2021/05/22 07:32:19;;;;;;;1.40;1.00;;;;;16.50;99678.00;;;;5090073;28;20324;-79
2021/05/22 07:34:46;;;;;;;0.93;0.75;;;;;16.50;99682.00;;;;5093614;28;20440;-78
2021/05/22 07:37:12;;;;;;;1.00;0.88;;;;;16.60;99683.00;;;;5093423;28;20202;-80
2021/05/22 07:39:40;;;;;;;1.85;0.82;;;;;16.60;99680.00;;;;5079719;28;20195;-79
2021/05/22 07:42:07;;;;;;;2.47;1.45;;;;;16.60;99686.00;;;;5082186;28;20268;-79
2021/05/22 07:44:34;;;;;;;0.82;0.80;;;;;16.60;99688.00;;;;5071231;28;20229;-77
2021/05/22 07:47:01;;;;;;;3.35;1.10;;;;;16.60;99682.00;;;;5067449;28;20263;-79
2021/05/22 07:49:37;;;;;;;1.45;0.98;;;;;16.70;99682.00;;;;5072485;28;20226;-77
2021/05/22 07:52:05;;;;;;;2.15;1.02;;;;;16.70;99685.00;;;;5076726;28;20198;-77
2021/05/22 07:54:35;;;;;;;1.17;0.90;;;;;16.80;99692.00;;;;5068232;28;20233;-79
2021/05/22 07:57:03;;;;;;;1.48;1.05;;;;;16.80;99697.00;;;;5072146;28;20200;-77
2021/05/22 07:59:30;;;;;;;2.22;1.20;;;;;16.80;99707.00;;;;5081586;28;20600;-77
2021/05/22 08:01:58;;;;;;;1.15;1.05;;;;;16.80;99700.00;;;;5071669;28;20203;-77
2021/05/22 08:04:24;;;;;;;1.20;1.10;;;;;16.80;99721.00;;;;5083143;28;21009;-78
2021/05/22 08:06:51;;;;;;;0.80;0.80;;;;;16.80;99714.00;;;;5070817;28;20203;-77
2021/05/22 08:09:18;;;;;;;1.20;0.77;;;;;16.80;99716.00;;;;5078241;28;20227;-75
2021/05/22 08:11:45;;;;;;;1.02;0.90;;;;;16.90;99722.00;;;;5078998;28;20190;-78
2021/05/22 08:14:12;;;;;;;2.30;0.95;;;;;16.90;99723.00;;;;5085238;28;20191;-76
2021/05/22 08:16:38;;;;;;;1.17;1.05;;;;;16.90;99713.00;;;;5080038;28;20201;-77
2021/05/22 08:19:07;;;;;;;2.78;1.45;;;;;16.90;99727.00;;;;5081613;28;20210;-78
2021/05/22 08:21:34;;;;;;;1.20;0.85;;;;;16.90;99722.00;;;;5074559;28;20202;-77
2021/05/22 08:24:01;;;;;;;2.40;1.42;;;;;16.90;99738.00;;;;5073826;28;20199;-76
2021/05/22 08:26:28;;;;;;;1.10;0.95;;;;;16.80;99731.00;;;;5070186;28;21130;-76
2021/05/22 08:28:56;;;;;;;1.40;1.08;;;;;16.80;99736.00;;;;5076316;28;20233;-75
2021/05/22 08:31:23;;;;;;;1.10;1.00;;;;;16.80;99731.00;;;;5081682;28;20203;-77
2021/05/22 08:33:50;;;;;;;1.30;0.98;;;;;16.90;99739.00;;;;5069817;28;20206;-77
2021/05/22 08:36:18;;;;;;;1.38;1.00;;;;;16.90;99732.00;;;;5077637;28;20206;-75
2021/05/22 08:38:44;;;;;;;1.05;1.00;;;;;16.90;99747.00;;;;5075455;28;20202;-79
2021/05/22 08:41:12;;;;;;;1.10;0.85;;;;;16.90;99746.00;;;;5069171;28;20199;-76
2021/05/22 08:43:38;;;;;;;1.42;0.85;;;;;16.90;99759.00;;;;5069936;28;20558;-78
2021/05/22 08:46:08;;;;;;;1.05;0.98;;;;;16.90;99755.00;;;;5083592;28;20206;-78
2021/05/22 08:48:36;;;;;;;1.38;1.08;;;;;17.00;99762.00;;;;5089937;28;20691;-79
2021/05/22 08:51:03;;;;;;;0.88;0.88;;;;;17.00;99766.00;;;;5070911;28;20248;-77
2021/05/22 08:53:30;;;;;;;0.75;0.75;;;;;17.00;99755.00;;;;5069171;28;20206;-77
2021/05/22 08:55:57;;;;;;;1.10;0.98;;;;;17.10;99769.00;;;;5074234;28;20195;-78
2021/05/22 08:58:24;;;;;;;0.82;0.75;;;;;17.10;99777.00;;;;5072457;28;20221;-77
2021/05/22 09:00:50;;;;;;;2.47;1.00;;;;;17.10;99776.00;;;;5072668;28;20202;-79
2021/05/22 09:03:17;;;;;;;1.00;0.90;;;;;17.10;99777.00;;;;5069146;28;20213;-78
2021/05/22 09:05:45;;;;;;;1.98;1.00;;;;;17.20;99778.00;;;;5073410;28;20211;-79
2021/05/22 09:08:15;;;;;;;1.23;1.02;;;;;17.20;99777.00;;;;5070711;28;20246;-78
2021/05/22 09:10:46;;;;;;;1.45;0.80;;;;;17.20;99778.00;;;;5073711;28;20288;-78
2021/05/22 09:13:15;;;;;;;1.88;0.82;;;;;17.30;99783.00;;;;5071669;28;20672;-79
2021/05/22 09:15:43;;;;;;;1.92;0.90;;;;;17.30;99784.00;;;;5087715;28;20248;-78
2021/05/22 09:18:12;;;;;;;1.00;0.80;;;;;17.40;99788.00;;;;5082586;28;20195;-78
2021/05/22 09:20:42;;;;;;;0.73;0.55;;;;;17.40;99789.00;;;;5068682;28;20264;-78
2021/05/22 09:23:11;;;;;;;1.13;0.63;;;;;17.50;99788.00;;;;5068008;28;20741;-78
2021/05/22 09:25:40;;;;;;;0.80;0.73;;;;;17.50;99793.00;;;;5082062;28;20202;-78
2021/05/22 09:28:10;;;;;;;1.50;0.90;;;;;17.50;99792.00;;;;5067662;28;20292;-78
2021/05/22 09:30:39;;;;;;;0.88;0.68;;;;;17.60;99793.00;;;;5080057;28;20225;-79
2021/05/22 09:33:12;;;;;;;0.90;0.60;;;;;17.60;99795.00;;;;5065969;28;20629;-77
2021/05/22 09:35:39;;;;;;;1.48;0.60;;;;;17.60;99801.00;;;;5073708;28;20608;-77
2021/05/22 09:38:06;;;;;;;1.08;0.65;;;;;17.60;99807.00;;;;5071259;28;20206;-77
2021/05/22 09:40:35;;;;;;;0.70;0.70;;;;;17.60;99809.00;;;;5068578;28;20617;-76
2021/05/22 09:43:04;;;;;;;2.03;0.80;;;;;17.60;99812.00;;;;5068810;28;20251;-76
2021/05/22 09:45:34;;;;;;;1.17;0.80;;;;;17.60;99818.00;;;;5069745;28;20703;-76
2021/05/22 09:48:10;;;;;;;1.50;0.80;;;;;17.60;99828.00;;;;5075015;28;20510;-77
2021/05/22 09:50:38;;;;;;;1.27;0.65;;;;;17.60;99821.00;;;;5081951;28;20230;-77
2021/05/22 09:53:22;;;;;;;0.63;0.60;;;;;17.60;99833.00;;;;5073137;28;20218;-77
2021/05/22 09:56:13;;;;;;;1.38;0.90;;;;;17.60;99833.00;;;;5066272;28;20586;-77
2021/05/22 09:58:41;;;;;;;1.20;0.77;;;;;17.70;99842.00;;;;5066829;28;20191;-77
2021/05/22 10:01:10;;;;;;;1.05;0.73;;;;;17.70;99843.00;;;;5073361;28;20214;-78
2021/05/22 10:03:37;;;;;;;1.27;0.80;;;;;17.70;99837.00;;;;5086463;28;20202;-78
2021/05/22 10:06:04;;;;;;;0.95;0.63;;;;;17.70;99845.00;;;;5072607;28;20195;-77
2021/05/22 10:08:31;;;;;;;0.52;0.52;;;;;17.80;99844.00;;;;5067614;28;20226;-78
2021/05/22 10:10:59;;;;;;;1.08;0.95;;;;;17.80;99847.00;;;;5069635;28;20463;-76
2021/05/22 10:13:27;;;;;;;1.10;0.65;;;;;17.80;99857.00;;;;5079396;28;20206;-77
2021/05/22 10:15:55;;;;;;;1.15;0.77;;;;;17.80;99859.00;;;;5070757;28;20194;-78
2021/05/22 10:18:24;;;;;;;0.57;0.57;;;;;17.80;99869.00;;;;5068393;28;20933;-78
2021/05/22 10:20:53;;;;;;;0.73;0.70;;;;;17.80;99869.00;;;;5068321;28;20248;-78
2021/05/22 10:23:20;;;;;;;0.63;0.63;;;;;17.90;99871.00;;;;5069165;28;20191;-78
2021/05/22 10:25:49;;;;;;;1.85;0.93;;;;;17.90;99876.00;;;;5068208;28;20677;-78
2021/05/22 10:28:16;;;;;;;1.73;0.82;;;;;18.00;99882.00;;;;5068647;28;20276;-78
2021/05/22 10:30:43;;;;;;;0.73;0.73;;;;;18.10;99885.00;;;;5068928;28;20222;-78
2021/05/22 10:33:12;;;;;;;1.98;0.80;;;;;18.10;99897.00;;;;5083275;28;20229;-78
2021/05/22 10:35:44;;;;;;;0.60;0.50;;;;;18.10;99901.00;;;;5071183;28;20205;-78
2021/05/22 10:38:26;;;;;;;0.90;0.57;;;;;18.10;99908.00;;;;5075569;28;20191;-78
2021/05/22 10:40:53;;;;;;;0.32;0.30;;;;;18.10;99916.00;;;;5069035;28;20653;-78
2021/05/22 10:43:42;;;;;;;1.02;0.47;;;;;17.90;99929.00;;;;5068378;28;20191;-78
2021/05/22 10:46:10;;;;;;;0.98;0.20;;;;;18.00;99926.00;;;;5067798;28;20198;-78
2021/05/22 10:48:54;;;;;;;3.13;0.57;;;;;17.90;99926.00;;;;5068608;28;20203;-75
2021/05/22 10:51:27;;;;;;;0.65;0.22;;;;;17.90;99941.00;;;;5069899;28;20210;-75
2021/05/22 10:53:55;;;;;;;0.65;0.40;;;;;18.00;99942.00;;;;5067946;28;20195;-76
2021/05/22 10:56:22;;;;;;;0.40;0.30;;;;;18.00;99951.00;;;;5076691;28;20195;-75
2021/05/22 10:59:11;;;;;;;0.60;0.43;;;;;18.00;99962.00;;;;5067468;28;20221;-77
2021/05/22 11:01:40;;;;;;;1.55;0.47;;;;;18.10;99969.00;;;;5084612;28;20194;-77
2021/05/22 11:04:37;;;;;;;2.88;1.00;;;;;18.00;99969.00;;;;5078967;28;20198;-77
2021/05/22 11:07:27;;;;;;;0.60;0.52;;;;;18.10;99975.00;;;;5087113;28;20202;-76
2021/05/22 11:09:57;;;;;;;0.50;0.40;;;;;18.20;99977.00;;;;5068514;28;20234;-76
2021/05/22 11:12:45;;;;;;;1.58;0.60;;;;;18.20;99991.00;;;;5084250;28;20210;-76
2021/05/22 11:15:40;;;;;;;0.75;0.40;;;;;18.20;99990.00;;;;5087841;28;20198;-77
2021/05/22 11:18:08;;;;;;;1.60;0.85;;;;;18.30;99996.00;;;;5078793;28;20210;-77
2021/05/22 11:20:35;;;;;;;0.82;0.75;;;;;18.30;100006.00;;;;5071584;28;20206;-78
2021/05/22 11:23:03;;;;;;;0.60;0.60;;;;;18.20;100008.00;;;;5088240;28;20199;-76
2021/05/22 11:25:51;;;;;;;0.95;0.80;;;;;18.10;100017.00;;;;5088321;28;20592;-75
2021/05/22 11:28:21;;;;;;;0.80;0.77;;;;;18.20;100019.00;;;;5075223;28;20309;-76
2021/05/22 11:30:51;;;;;;;1.70;0.93;;;;;18.30;100024.00;;;;5082646;28;20296;-76
2021/05/22 11:33:32;;;;;;;1.60;1.20;;;;;18.20;100030.00;;;;5071479;28;20195;-79
2021/05/22 11:36:13;;;;;;;2.15;0.85;;;;;18.30;100031.00;;;;5074989;28;20191;-79
2021/05/22 11:38:42;;;;;;;1.40;0.73;;;;;18.30;100035.00;;;;5070236;28;20199;-79
2021/05/22 11:41:11;;;;;;;2.50;1.33;;;;;18.30;100043.00;;;;5078211;28;20199;-80
2021/05/22 11:43:42;;;;;;;0.88;0.88;;;;;18.30;100062.00;;;;5078455;28;20198;-77
2021/05/22 11:46:11;;;;;;;1.30;0.80;;;;;18.30;100050.00;;;;5075617;28;20191;-79
2021/05/22 11:48:40;;;;;;;1.92;1.30;;;;;18.30;100054.00;;;;5081125;28;20201;-81
2021/05/22 11:51:10;;;;;;;1.85;1.10;;;;;18.30;100060.00;;;;5073010;28;20199;-81
2021/05/22 11:53:38;;;;;;;1.65;1.15;;;;;18.30;100065.00;;;;5072587;28;20199;-81
2021/05/22 11:56:09;;;;;;;1.45;1.05;;;;;18.30;100074.00;;;;5079736;28;20202;-80
2021/05/22 11:58:37;;;;;;;2.20;0.95;;;;;18.40;100073.00;;;;5082075;28;20194;-81
2021/05/22 12:01:12;;;;;;;1.77;1.17;;;;;18.40;100080.00;;;;5070388;28;20284;-81
2021/05/22 12:03:40;;;;;;;1.00;0.88;;;;;18.40;100092.00;;;;5070388;28;20194;-81
2021/05/22 12:06:08;;;;;;;1.60;1.05;;;;;18.30;100099.00;;;;5069033;28;20214;-81
2021/05/22 12:08:36;;;;;;;1.42;1.08;;;;;18.30;100114.00;;;;5070859;28;20240;-83
2021/05/22 12:11:14;;;;;;;4.50;1.50;;;;;18.20;100114.00;;;;5077148;28;20199;-81
2021/05/22 12:13:57;;;;;;;2.35;0.90;;;;;18.20;100124.00;;;;5070704;28;20248;-82
2021/05/22 12:16:24;;;;;;;1.48;1.05;;;;;18.30;100125.00;;;;5069991;28;20536;-81
2021/05/22 12:18:52;;;;;;;1.15;0.82;;;;;18.40;100128.00;;;;5076521;28;20201;-81
2021/05/22 12:21:28;;;;;;;1.90;0.90;;;;;18.40;100135.00;;;;5078426;28;20676;-80
2021/05/22 12:24:01;;;;;;;1.10;0.75;;;;;18.50;100136.00;;;;5078190;28;20190;-80